Time;durP1;ratioP1;P1;durP2;ratioP2;P2;SDS_P1;SDS_P2;PMS_P1;PMS_P2;Temp;Humidity;BMP_temperature;BMP_pressure;BME280_temperature;BME280_humidity;BME280_pressure;Samples;Min_cycle;Max_cycle;Signal;HPM_P1;HPM_P2
2022/06/10 00:05:07;;;;;;;7.75;3.33;;;13.70;99.90;;;;;;6698951;88;20657;-78
2022/06/10 00:15:09;;;;;;;9.27;3.62;;;13.60;99.90;;;;;;6691257;88;20215;-78
2022/06/10 00:25:11;;;;;;;7.37;3.33;;;13.60;99.90;;;;;;6686436;88;20287;-79
2022/06/10 00:35:13;;;;;;;6.50;3.45;;;13.40;99.90;;;;;;6685959;88;20320;-78
2022/06/10 00:45:53;;;;;;;7.20;3.05;;;13.40;99.90;;;;;;6696876;88;20195;-78
2022/06/10 00:55:56;;;;;;;7.93;3.22;;;13.40;99.90;;;;;;6692633;88;20191;-78
2022/06/10 01:05:56;;;;;;;4.55;3.15;;;13.40;99.90;;;;;;6696330;88;20243;-78
2022/06/10 01:16:14;;;;;;;5.03;3.37;;;13.40;99.90;;;;;;6690567;88;20236;-79
2022/06/10 01:37:41;;;;;;;5.12;2.95;;;13.10;99.90;;;;;;6684551;88;20250;-79
2022/06/10 01:48:05;;;;;;;5.57;3.50;;;12.90;99.90;;;;;;6683357;88;20219;-79
2022/06/10 01:58:30;;;;;;;6.25;3.80;;;12.90;99.90;;;;;;6693011;88;20327;-79
2022/06/10 02:08:40;;;;;;;5.03;3.63;;;12.90;99.90;;;;;;6692914;88;20171;-78
2022/06/10 02:18:51;;;;;;;5.55;4.10;;;12.70;99.90;;;;;;6695710;88;20705;-78
2022/06/10 02:28:55;;;;;;;10.25;4.78;;;12.70;99.90;;;;;;6697666;88;20213;-79
2022/06/10 02:39:06;;;;;;;8.23;4.55;;;12.70;99.90;;;;;;6694459;88;20211;-79
2022/06/10 02:49:14;;;;;;;8.65;4.70;;;12.60;99.90;;;;;;6691766;88;20215;-78
2022/06/10 03:10:04;;;;;;;8.32;4.50;;;12.50;99.90;;;;;;6714485;88;20178;-80
2022/06/10 03:20:38;;;;;;;10.43;4.47;;;12.50;99.90;;;;;;6705653;88;20187;-79
2022/06/10 03:30:55;;;;;;;7.15;4.40;;;12.50;99.90;;;;;;6700490;88;20307;-78
2022/06/10 03:41:01;;;;;;;7.43;3.97;;;12.40;99.90;;;;;;6706151;88;20188;-77
2022/06/10 03:51:01;;;;;;;;;;;12.40;99.90;;;;;;6697039;88;20198;-78
2022/06/10 04:01:02;;;;;;;6.90;4.87;;;12.30;99.90;;;;;;6689090;88;20099;-78
2022/06/10 04:11:03;;;;;;;7.87;5.20;;;12.30;99.90;;;;;;6688629;88;20195;-78
2022/06/10 04:21:05;;;;;;;10.27;5.90;;;12.20;99.90;;;;;;6691757;88;21062;-77
2022/06/10 04:31:05;;;;;;;9.48;6.62;;;12.20;99.90;;;;;;6694732;88;20714;-77
2022/06/10 04:41:06;;;;;;;13.62;6.95;;;12.20;99.90;;;;;;6693537;88;20292;-78
2022/06/10 04:51:07;;;;;;;12.57;6.82;;;12.30;99.90;;;;;;6692508;88;20340;-77
2022/06/10 05:01:07;;;;;;;14.35;8.02;;;12.50;99.90;;;;;;6692842;88;20231;-78
2022/06/10 05:11:08;;;;;;;11.25;7.70;;;12.50;99.90;;;;;;6692814;89;20281;-78
2022/06/10 05:21:10;;;;;;;15.13;8.25;;;12.70;99.90;;;;;;6695667;88;20193;-80
2022/06/10 05:31:10;;;;;;;11.02;6.90;;;12.80;99.90;;;;;;6695997;88;20449;-78
2022/06/10 05:52:15;;;;;;;10.40;7.25;;;13.40;99.90;;;;;;6716561;88;20214;-78
2022/06/10 06:02:16;;;;;;;11.12;6.50;;;13.80;99.90;;;;;;6709989;88;20185;-78
2022/06/10 06:12:17;;;;;;;11.20;7.20;;;14.50;99.90;;;;;;6702470;88;20187;-78
2022/06/10 06:22:18;;;;;;;10.80;6.85;;;14.80;99.90;;;;;;6691556;88;20235;-79
2022/06/10 06:32:19;;;;;;;10.15;6.37;;;15.10;99.90;;;;;;6708080;88;20182;-78
2022/06/10 06:42:21;;;;;;;10.32;6.00;;;15.50;99.90;;;;;;6725352;88;20191;-78
2022/06/10 06:52:21;;;;;;;8.18;5.05;;;16.00;99.90;;;;;;6697891;88;20195;-78
2022/06/10 07:02:22;;;;;;;9.75;4.85;;;16.60;99.90;;;;;;6696291;88;20317;-78
2022/06/10 07:12:22;;;;;;;9.93;4.57;;;16.90;99.90;;;;;;6716468;88;20279;-79
2022/06/10 07:22:23;;;;;;;6.93;4.15;;;17.10;99.90;;;;;;6707954;88;20279;-78
2022/06/10 07:32:24;;;;;;;10.73;4.20;;;17.40;99.90;;;;;;6707516;88;20290;-78
2022/06/10 07:42:25;;;;;;;7.97;4.05;;;17.70;99.90;;;;;;6691451;88;20185;-79
2022/06/10 07:52:25;;;;;;;8.52;3.50;;;18.00;99.90;;;;;;6706070;88;20257;-78
2022/06/10 08:02:26;;;;;;;6.32;2.20;;;18.50;99.90;;;;;;6700255;88;21056;-79
2022/06/10 08:12:26;;;;;;;4.78;2.45;;;18.90;99.90;;;;;;6699087;88;20187;-78
2022/06/10 08:22:34;;;;;;;7.05;2.20;;;19.20;99.90;;;;;;6703455;88;20212;-78
2022/06/10 08:32:34;;;;;;;3.17;1.20;;;19.90;99.90;;;;;;6709651;88;20194;-79
2022/06/10 08:42:40;;;;;;;4.50;1.33;;;20.60;99.90;;;;;;6710850;88;20678;-80
2022/06/10 08:53:11;;;;;;;6.97;1.40;;;21.30;99.90;;;;;;6716419;88;20277;-78
2022/06/10 09:03:27;;;;;;;5.72;1.17;;;20.90;99.90;;;;;;6700643;88;20253;-78
2022/06/10 09:13:35;;;;;;;8.63;1.00;;;21.50;99.90;;;;;;6706397;88;20337;-79
2022/06/10 09:23:44;;;;;;;4.60;1.10;;;22.00;97.70;;;;;;6704447;88;20195;-79
2022/06/10 09:34:01;;;;;;;5.37;1.20;;;22.50;98.20;;;;;;6699897;88;20204;-79
2022/06/10 09:44:05;;;;;;;6.05;1.10;;;22.30;97.50;;;;;;6709972;88;20624;-79
2022/06/10 09:54:08;;;;;;;7.43;1.10;;;23.30;97.10;;;;;;6721079;88;20211;-79
2022/06/10 10:04:27;;;;;;;5.60;1.23;;;23.60;94.20;;;;;;6700662;88;20202;-81
2022/06/10 10:15:07;;;;;;;3.83;1.10;;;23.30;97.00;;;;;;6709718;88;20951;-78
2022/06/10 10:25:18;;;;;;;5.87;1.15;;;23.60;95.80;;;;;;6701630;88;20694;-79
2022/06/10 10:35:43;;;;;;;6.65;1.50;;;23.80;95.50;;;;;;6715133;88;20316;-79
2022/06/10 10:46:00;;;;;;;4.68;1.10;;;24.10;95.40;;;;;;6712121;88;20335;-79
2022/06/10 10:56:01;;;;;;;4.22;1.25;;;25.50;93.40;;;;;;6710718;88;20213;-79
2022/06/10 11:06:06;;;;;;;5.28;1.30;;;25.30;92.10;;;;;;6711313;88;20353;-79
2022/06/10 11:16:31;;;;;;;5.35;1.17;;;26.20;90.80;;;;;;6709929;88;20214;-79
2022/06/10 11:26:32;;;;;;;4.43;1.00;;;25.10;92.40;;;;;;6707570;88;20662;-80
2022/06/10 11:36:36;;;;;;;5.85;1.10;;;24.90;93.30;;;;;;6704876;88;20257;-80
2022/06/10 11:46:53;;;;;;;4.25;1.10;;;24.90;92.10;;;;;;6706894;88;20645;-80
2022/06/10 12:08:11;;;;;;;4.18;1.12;;;24.50;93.70;;;;;;6708585;88;20189;-78
2022/06/10 12:18:13;;;;;;;5.37;1.02;;;24.50;93.90;;;;;;6699896;88;20194;-78
2022/06/10 12:28:32;;;;;;;4.25;1.30;;;24.80;95.00;;;;;;6706132;88;20198;-78
2022/06/10 12:38:36;;;;;;;6.07;1.42;;;24.90;93.30;;;;;;6712729;88;20216;-79
2022/06/10 12:48:47;;;;;;;5.43;1.30;;;24.50;94.80;;;;;;6712375;88;20741;-78
2022/06/10 12:59:06;;;;;;;3.97;1.27;;;23.80;95.70;;;;;;6714375;88;20272;-78
2022/06/10 13:09:10;;;;;;;4.62;1.10;;;24.70;94.10;;;;;;6707724;88;20186;-78
2022/06/10 13:19:34;;;;;;;5.85;1.20;;;25.50;93.90;;;;;;6717745;88;20200;-78
2022/06/10 13:29:34;;;;;;;5.03;1.20;;;25.90;92.00;;;;;;6706379;88;20245;-78
2022/06/10 13:39:39;;;;;;;5.37;1.35;;;25.10;92.60;;;;;;6705382;88;20186;-78
2022/06/10 13:49:44;;;;;;;5.15;1.10;;;24.50;94.30;;;;;;6703085;88;20193;-78
2022/06/10 13:59:57;;;;;;;6.47;1.20;;;24.30;94.80;;;;;;6712530;88;20178;-78
2022/06/10 14:09:57;;;;;;;4.28;1.20;;;23.80;95.60;;;;;;6704518;88;20216;-78
2022/06/10 14:20:01;;;;;;;4.97;1.30;;;23.50;97.00;;;;;;6695707;88;20186;-77
2022/06/10 14:30:15;;;;;;;3.33;1.02;;;24.00;96.30;;;;;;6702754;88;20612;-78
2022/06/10 14:40:21;;;;;;;3.40;0.85;;;24.10;95.50;;;;;;6704677;88;20262;-78
2022/06/10 14:50:22;;;;;;;5.18;0.90;;;24.60;95.60;;;;;;6714269;88;20214;-78
2022/06/10 15:00:27;;;;;;;5.78;1.15;;;25.40;94.00;;;;;;6708795;88;20232;-79
2022/06/10 15:10:27;;;;;;;4.93;1.37;;;25.70;92.80;;;;;;6713463;88;20193;-79
2022/06/10 15:20:29;;;;;;;4.23;0.90;;;25.70;92.80;;;;;;6712774;88;20211;-78
2022/06/10 15:30:29;;;;;;;4.00;1.00;;;25.90;92.40;;;;;;6711726;88;20369;-79
2022/06/10 15:40:46;;;;;;;5.07;1.20;;;26.30;90.20;;;;;;6724555;88;20253;-79
2022/06/10 15:50:50;;;;;;;2.53;0.90;;;26.20;91.40;;;;;;6704270;88;20645;-79
2022/06/10 16:00:51;;;;;;;2.78;0.98;;;26.00;90.20;;;;;;6712515;88;20715;-79
2022/06/10 16:10:56;;;;;;;3.70;0.90;;;25.20;91.30;;;;;;6710679;88;20213;-78
2022/06/10 16:20:58;;;;;;;5.65;1.15;;;25.40;92.10;;;;;;6708970;88;20481;-78
2022/06/10 16:30:59;;;;;;;4.82;1.30;;;24.80;93.10;;;;;;6707199;88;20234;-78
2022/06/10 16:41:00;;;;;;;3.08;1.10;;;23.90;95.40;;;;;;6713234;88;20229;-78
2022/06/10 16:51:00;;;;;;;3.12;1.23;;;23.80;96.40;;;;;;6716350;88;20193;-79
2022/06/10 17:01:02;;;;;;;2.60;1.40;;;23.80;97.60;;;;;;6715530;88;20684;-80
2022/06/10 17:11:05;;;;;;;4.25;1.30;;;23.60;98.70;;;;;;6716372;88;20785;-81
2022/06/10 17:21:05;;;;;;;4.13;1.20;;;23.50;98.80;;;;;;6718770;88;20331;-80
2022/06/10 17:31:09;;;;;;;4.68;1.40;;;23.30;99.60;;;;;;6722646;88;20185;-79
2022/06/10 17:41:28;;;;;;;5.93;2.25;;;23.20;99.90;;;;;;6714590;88;20182;-79
2022/06/10 17:51:29;;;;;;;4.85;1.42;;;23.00;99.90;;;;;;6716363;88;20717;-79
2022/06/10 18:01:30;;;;;;;8.07;1.60;;;23.00;99.90;;;;;;6702416;88;20686;-79
2022/06/10 18:11:30;;;;;;;3.55;1.27;;;22.90;99.90;;;;;;6712468;88;20186;-79
2022/06/10 18:21:31;;;;;;;3.95;1.30;;;22.90;99.90;;;;;;6702925;88;20240;-79
2022/06/10 18:31:32;;;;;;;4.60;1.20;;;22.80;99.90;;;;;;6706951;88;20190;-80
2022/06/10 18:41:32;;;;;;;4.00;1.10;;;22.60;99.90;;;;;;6706938;88;20568;-79
2022/06/10 18:51:36;;;;;;;5.53;1.50;;;22.50;99.90;;;;;;6699951;88;20203;-79
2022/06/10 19:01:40;;;;;;;4.85;1.33;;;22.50;99.90;;;;;;6710989;88;20198;-79
2022/06/10 19:11:42;;;;;;;3.93;1.30;;;22.40;99.90;;;;;;6701228;88;20199;-79
2022/06/10 19:21:45;;;;;;;3.92;1.40;;;22.20;99.90;;;;;;6706050;88;20335;-79
2022/06/10 19:31:57;;;;;;;6.07;1.50;;;21.90;99.90;;;;;;6708760;88;20198;-79
2022/06/10 19:41:58;;;;;;;3.75;1.30;;;21.60;99.90;;;;;;6703126;88;20237;-80
2022/06/10 19:51:58;;;;;;;5.37;1.80;;;21.30;99.90;;;;;;6709351;88;20218;-80
2022/06/10 20:01:59;;;;;;;6.03;1.50;;;20.90;99.90;;;;;;6702458;88;20191;-79
2022/06/10 20:11:59;;;;;;;6.85;1.98;;;20.70;99.90;;;;;;6715078;88;20208;-80
2022/06/10 20:22:00;;;;;;;3.92;1.65;;;20.60;99.90;;;;;;6715116;88;20193;-80
2022/06/10 20:32:01;;;;;;;7.10;1.50;;;20.60;99.90;;;;;;6706268;88;20236;-80
2022/06/10 20:42:02;;;;;;;7.15;1.92;;;20.80;99.90;;;;;;6710503;88;20201;-80
2022/06/10 20:52:08;;;;;;;4.47;1.73;;;20.60;99.90;;;;;;6707099;88;20638;-79
2022/06/10 21:02:19;;;;;;;4.47;2.03;;;20.40;99.90;;;;;;6710103;88;20190;-80
2022/06/10 21:12:20;;;;;;;6.60;2.30;;;20.20;99.90;;;;;;6708384;88;20175;-80
2022/06/10 21:22:23;;;;;;;5.12;2.20;;;20.00;99.90;;;;;;6709324;88;20232;-79
2022/06/10 21:32:23;;;;;;;7.00;2.17;;;19.80;99.90;;;;;;6708741;88;20715;-80
2022/06/10 21:52:47;;;;;;;6.90;1.80;;;19.70;99.90;;;;;;6692016;88;20280;-80
2022/06/10 22:02:48;;;;;;;6.35;2.00;;;19.70;99.90;;;;;;6691330;89;20314;-80
2022/06/10 22:12:50;;;;;;;4.68;1.90;;;19.60;99.90;;;;;;6704038;88;20218;-80
2022/06/10 22:22:53;;;;;;;3.78;1.90;;;19.70;99.90;;;;;;6712399;88;20186;-80
2022/06/10 22:32:58;;;;;;;6.22;2.30;;;19.60;99.90;;;;;;6695887;88;20221;-78
2022/06/10 22:42:58;;;;;;;4.20;1.92;;;19.50;99.90;;;;;;6711540;88;20186;-78
2022/06/10 22:52:59;;;;;;;6.70;2.05;;;19.40;99.90;;;;;;6711141;88;20248;-78
2022/06/10 23:03:05;;;;;;;5.57;2.10;;;19.30;99.90;;;;;;6711970;88;20461;-78
2022/06/10 23:13:16;;;;;;;4.20;1.95;;;19.30;99.90;;;;;;6706973;88;20805;-78
2022/06/10 23:23:19;;;;;;;6.25;2.08;;;19.20;99.90;;;;;;6710535;88;20604;-78
2022/06/10 23:33:20;;;;;;;5.72;2.30;;;19.10;99.90;;;;;;6711355;88;20320;-79
2022/06/10 23:43:29;;;;;;;4.32;1.90;;;19.10;99.90;;;;;;6704357;88;20222;-78
2022/06/10 23:53:30;;;;;;;7.65;2.00;;;19.00;99.90;;;;;;6709772;88;20236;-78
